Glory Atlantic — LADA8 — position and weather

sailwx.info

Track history (hours):
 
Tides and Currents Weather Stations Pressure Air Temp Water Temp Dewpoint Dewpoint Depression Visibility Wind Speed Wind Dir Waves Ship Positions

Glory Atlantic

Last reported at 2018-Jun-25 14:00 UTC. Time now 2018-Jun-25 14:17 UTC.
Position S 40°48' E 146°08'.

Length 145 m; draft 5.7 m.

Type: Cargo ship. MMSI: 257223000.

Date/timePositionNaut miles runAvg speedWind from/ knotsBaromVisibWave heightAir tempDewpointWater temp
2018-Jun-25 14:00S 40°48' E 146°08'2 3.5
2018-Jun-25 13:30S 40°47' E 146°06'2 3.4
2018-Jun-25 13:00S 40°45' E 146°05'6 3.4
2018-Jun-25 11:06S 40°41' E 145°59'9 3.7
2018-Jun-25 08:46S 40°34' E 145°51'1 4.0
2018-Jun-25 08:29S 40°34' E 145°50'  
2018-Jun-22 11:18S 40°21' E 145°52'310.2
2018-Jun-22 10:59S 40°23' E 145°54'510.1
2018-Jun-22 10:31S 40°28' E 145°57'510.1
2018-Jun-22 10:01S 40°32' E 145°60'510.0
2018-Jun-22 09:30S 40°37' E 146°03'5 9.9
2018-Jun-22 09:01S 40°41' E 146°06'5 9.9
2018-Jun-22 08:31S 40°46' E 146°09'5 9.8
2018-Jun-22 08:01S 40°50' E 146°12'5 9.8
2018-Jun-22 07:31S 40°54' E 146°15'510.0
2018-Jun-22 07:00S 40°59' E 146°18'510.6
2018-Jun-22 06:31S 41°03' E 146°21'510.0
2018-Jun-22 06:00S 41°08' E 146°23'3 5.8
2018-Jun-22 05:30S 41°11' E 146°22'0 0.0
2018-Jun-22 04:59S 41°11' E 146°22'0 0.2
2018-Jun-22 04:29S 41°11' E 146°22'0 0.2
2018-Jun-22 03:59S 41°11' E 146°22'0 0.0
2018-Jun-22 03:29S 41°11' E 146°22'0 0.0
2018-Jun-22 02:59S 41°11' E 146°22'0 0.0
2018-Jun-22 02:29S 41°11' E 146°22'0 0.0
2018-Jun-22 01:59S 41°11' E 146°22'0 0.2
2018-Jun-22 01:29S 41°11' E 146°22'0 0.2
2018-Jun-22 01:00S 41°11' E 146°22'0 0.0
2018-Jun-22 00:30S 41°11' E 146°22'0 0.0
2018-Jun-22 00:00S 41°11' E 146°22'0 0.0
2018-Jun-21 23:30S 41°11' E 146°22'0 0.0
2018-Jun-21 23:00S 41°11' E 146°22'0 0.0
2018-Jun-21 22:30S 41°11' E 146°22'0 0.0
2018-Jun-21 22:00S 41°11' E 146°22'0 0.1
2018-Jun-21 21:30S 41°11' E 146°22'0 0.1
2018-Jun-21 21:00S 41°11' E 146°22'0 0.0
2018-Jun-21 20:30S 41°11' E 146°22'0 0.0
2018-Jun-21 12:07S 41°11' E 146°22'0 0.0
2018-Jun-21 11:58S 41°11' E 146°22'0 0.0
2018-Jun-21 11:25S 41°11' E 146°22'0 0.0
2018-Jun-21 10:55S 41°11' E 146°22'0 0.0
2018-Jun-21 10:22S 41°11' E 146°22'0 0.0
2018-Jun-21 09:55S 41°11' E 146°22'0 0.0
2018-Jun-21 09:28S 41°11' E 146°22'0 0.0
2018-Jun-21 08:52S 41°11' E 146°22'0 0.0
2018-Jun-21 08:28S 41°11' E 146°22'0 0.0
2018-Jun-21 07:58S 41°11' E 146°22'0 0.0
2018-Jun-21 07:28S 41°11' E 146°22'0 0.0
2018-Jun-21 06:55S 41°11' E 146°22'0 0.0
2018-Jun-21 01:01S 41°11' E 146°22'0 0.0
2018-Jun-21 00:55S 41°11' E 146°22'0 0.0
2018-Jun-21 00:28S 41°11' E 146°22'0 0.0
2018-Jun-20 23:58S 41°11' E 146°22'0 0.0
2018-Jun-20 23:28S 41°11' E 146°22'0 0.0
2018-Jun-20 22:55S 41°11' E 146°22'0 0.0
2018-Jun-20 22:25S 41°11' E 146°22'0 0.0
2018-Jun-20 21:58S 41°11' E 146°22'0 0.0
2018-Jun-20 21:28S 41°11' E 146°22'0 0.0
2018-Jun-20 20:58S 41°11' E 146°22'0 0.0
2018-Jun-20 20:28S 41°11' E 146°22'0 0.0
2018-Jun-20 19:58S 41°11' E 146°22'0 0.0
2018-Jun-20 19:28S 41°11' E 146°22'0 0.0
2018-Jun-20 18:52S 41°11' E 146°22'0 0.0
2018-Jun-20 18:28S 41°11' E 146°22'0 0.0
2018-Jun-20 17:58S 41°11' E 146°22'0 0.0
2018-Jun-20 17:28S 41°11' E 146°22'0 0.0
2018-Jun-20 16:58S 41°11' E 146°22'0 0.0
2018-Jun-20 16:28S 41°11' E 146°22'0 0.0
2018-Jun-20 15:58S 41°11' E 146°22'0 0.0
2018-Jun-20 15:28S 41°11' E 146°22'0 0.0
2018-Jun-20 14:49S 41°11' E 146°22'0 0.0
2018-Jun-20 14:28S 41°11' E 146°22'0 0.2
2018-Jun-20 14:00S 41°11' E 146°22'2 4.7
2018-Jun-20 13:30S 41°09' E 146°23'3 6.1
2018-Jun-20 13:00S 41°06' E 146°23'3 5.9
2018-Jun-20 12:30S 41°03' E 146°22'3 6.2
2018-Jun-20 12:00S 41°00' E 146°21'4 7.3
2018-Jun-20 11:30S 40°57' E 146°19'4 7.8
2018-Jun-20 11:00S 40°53' E 146°18'4 7.8
2018-Jun-20 10:30S 40°49' E 146°17'3 6.0
2018-Jun-20 10:00S 40°46' E 146°15'2 3.8
2018-Jun-20 09:30S 40°44' E 146°15'2 3.9
2018-Jun-20 09:00S 40°43' E 146°14'2 4.3
2018-Jun-20 08:30S 40°41' E 146°13'1 1.8
2018-Jun-20 08:00S 40°41' E 146°12'1 1.5
2018-Jun-20 07:30S 40°41' E 146°12'1 1.1
2018-Jun-20 07:00S 40°42' E 146°11'1 1.2
2018-Jun-20 06:30S 40°43' E 146°11'1 1.2
2018-Jun-20 06:00S 40°43' E 146°11'1 1.3
2018-Jun-20 05:30S 40°44' E 146°11'1 1.7
2018-Jun-20 05:00S 40°44' E 146°10'1 1.5
2018-Jun-20 04:30S 40°45' E 146°09'1 1.5
2018-Jun-20 04:00S 40°46' E 146°09'1 1.8
2018-Jun-20 03:30S 40°46' E 146°08'1 2.3
2018-Jun-20 03:00S 40°48' E 146°08'0 0.8
2018-Jun-20 02:30S 40°48' E 146°07'0 0.2
2018-Jun-20 02:00S 40°48' E 146°07'1 1.4
2018-Jun-20 01:30S 40°48' E 146°07'1 1.1
2018-Jun-20 01:00S 40°49' E 146°07'0 1.0
2018-Jun-20 00:30S 40°49' E 146°07'1 1.1
2018-Jun-20 00:00S 40°50' E 146°07'0 0.5
2018-Jun-19 23:30S 40°50' E 146°07'2 1.3
2018-Jun-19 22:08S 40°49' E 146°09'0 0.8
2018-Jun-19 22:00S 40°48' E 146°09'1 2.5
2018-Jun-19 21:30S 40°47' E 146°09'3 5.5
2018-Jun-19 21:00S 40°45' E 146°08'5 9.7
2018-Jun-19 20:30S 40°41' E 146°05'510.8
2018-Jun-19 20:00S 40°36' E 146°01'810.7
2018-Jun-19 19:18S 40°29' E 145°56'310.8
2018-Jun-19 19:00S 40°26' E 145°54'  
2018-Jun-16 18:51S 40°24' E 145°54'411.3
2018-Jun-16 18:30S 40°28' E 145°57'611.3
2018-Jun-16 18:00S 40°33' E 146°00'611.4
2018-Jun-16 17:30S 40°38' E 146°04'611.4
2018-Jun-16 17:00S 40°43' E 146°07'611.4
2018-Jun-16 16:30S 40°48' E 146°10'611.3
2018-Jun-16 16:00S 40°53' E 146°14'611.2
2018-Jun-16 15:30S 40°58' E 146°17'611.3
2018-Jun-16 15:00S 41°03' E 146°21'511.0
2018-Jun-16 14:30S 41°08' E 146°23'3 6.0
2018-Jun-16 14:00S 41°11' E 146°22'0 0.2
2018-Jun-16 13:30S 41°11' E 146°22'0 0.0
2018-Jun-16 13:00S 41°11' E 146°22'0 0.0
2018-Jun-16 12:30S 41°11' E 146°22'0 0.0
2018-Jun-16 11:30S 41°11' E 146°22'0 0.0
2018-Jun-16 10:57S 41°11' E 146°22'0 0.0
2018-Jun-16 10:30S 41°11' E 146°22'0 0.0
2018-Jun-16 09:57S 41°11' E 146°22'0 0.0
2018-Jun-16 09:30S 41°11' E 146°22'0 0.0
2018-Jun-16 08:57S 41°11' E 146°22'0 0.0
2018-Jun-16 08:27S 41°11' E 146°22'0 0.0
2018-Jun-16 07:57S 41°11' E 146°22'0 0.0
2018-Jun-16 07:30S 41°11' E 146°22'0 0.0
2018-Jun-16 07:00S 41°11' E 146°22'0 0.0
2018-Jun-16 06:24S 41°11' E 146°22'0 0.0
2018-Jun-16 06:00S 41°11' E 146°22'0 0.0
2018-Jun-16 05:30S 41°11' E 146°22'0 0.0
2018-Jun-16 05:00S 41°11' E 146°22'0 0.0
2018-Jun-16 04:30S 41°11' E 146°22'0 0.0
2018-Jun-16 04:00S 41°11' E 146°22'0 0.0
2018-Jun-16 03:30S 41°11' E 146°22'0 0.0
2018-Jun-16 03:00S 41°11' E 146°22'0 0.0
2018-Jun-16 02:30S 41°11' E 146°22'0 0.2
2018-Jun-16 02:00S 41°11' E 146°22'0 0.2
2018-Jun-16 01:30S 41°11' E 146°22'0 0.0
2018-Jun-16 01:00S 41°11' E 146°22'0 0.0
2018-Jun-16 00:30S 41°11' E 146°22'0 0.0
2018-Jun-16 00:00S 41°11' E 146°22'0 0.0
2018-Jun-15 22:18S 41°11' E 146°22'0 0.2
2018-Jun-15 22:00S 41°11' E 146°22'0 0.1
2018-Jun-15 21:30S 41°11' E 146°22'0 0.0
2018-Jun-15 21:00S 41°11' E 146°22'0 0.0
2018-Jun-15 20:24S 41°11' E 146°22'0 0.0
2018-Jun-15 19:48S 41°11' E 146°22'0 0.0
2018-Jun-15 19:30S 41°11' E 146°22'0 0.0
2018-Jun-15 19:00S 41°11' E 146°22'0 0.0
2018-Jun-15 18:30S 41°11' E 146°22'0 0.0
2018-Jun-15 15:42S 41°11' E 146°22'0 0.0
2018-Jun-15 15:30S 41°11' E 146°22'0 0.0
2018-Jun-15 15:00S 41°11' E 146°22'0 0.0
2018-Jun-15 14:30S 41°11' E 146°22'  
Track history (hours):
 
Tides and Currents Weather Stations Pressure Air Temp Water Temp Dewpoint Dewpoint Depression Visibility Wind Speed Wind Dir Waves Ship Positions

Glory Atlantic

Last reported at 2018-Jun-25 14:00 UTC. Time now 2018-Jun-25 14:17 UTC.
Position S 40°48' E 146°08'.

Length 145 m; draft 5.7 m.

Type: Cargo ship. MMSI: 257223000.

Date/timePositionNaut miles runAvg speedWind from/ knotsBaromVisibWave heightAir tempDewpointWater temp
2018-Jun-25 14:00S 40°48' E 146°08'2 3.5
2018-Jun-25 13:30S 40°47' E 146°06'2 3.4
2018-Jun-25 13:00S 40°45' E 146°05'6 3.4
2018-Jun-25 11:06S 40°41' E 145°59'9 3.7
2018-Jun-25 08:46S 40°34' E 145°51'1 4.0
2018-Jun-25 08:29S 40°34' E 145°50'  
2018-Jun-22 11:18S 40°21' E 145°52'310.2
2018-Jun-22 10:59S 40°23' E 145°54'510.1
2018-Jun-22 10:31S 40°28' E 145°57'510.1
2018-Jun-22 10:01S 40°32' E 145°60'510.0
2018-Jun-22 09:30S 40°37' E 146°03'5 9.9
2018-Jun-22 09:01S 40°41' E 146°06'5 9.9
2018-Jun-22 08:31S 40°46' E 146°09'5 9.8
2018-Jun-22 08:01S 40°50' E 146°12'5 9.8
2018-Jun-22 07:31S 40°54' E 146°15'510.0
2018-Jun-22 07:00S 40°59' E 146°18'510.6
2018-Jun-22 06:31S 41°03' E 146°21'510.0
2018-Jun-22 06:00S 41°08' E 146°23'3 5.8
2018-Jun-22 05:30S 41°11' E 146°22'0 0.0
2018-Jun-22 04:59S 41°11' E 146°22'0 0.2
2018-Jun-22 04:29S 41°11' E 146°22'0 0.2
2018-Jun-22 03:59S 41°11' E 146°22'0 0.0
2018-Jun-22 03:29S 41°11' E 146°22'0 0.0
2018-Jun-22 02:59S 41°11' E 146°22'0 0.0
2018-Jun-22 02:29S 41°11' E 146°22'0 0.0
2018-Jun-22 01:59S 41°11' E 146°22'0 0.2
2018-Jun-22 01:29S 41°11' E 146°22'0 0.2
2018-Jun-22 01:00S 41°11' E 146°22'0 0.0
2018-Jun-22 00:30S 41°11' E 146°22'0 0.0
2018-Jun-22 00:00S 41°11' E 146°22'0 0.0
2018-Jun-21 23:30S 41°11' E 146°22'0 0.0
2018-Jun-21 23:00S 41°11' E 146°22'0 0.0
2018-Jun-21 22:30S 41°11' E 146°22'0 0.0
2018-Jun-21 22:00S 41°11' E 146°22'0 0.1
2018-Jun-21 21:30S 41°11' E 146°22'0 0.1
2018-Jun-21 21:00S 41°11' E 146°22'0 0.0
2018-Jun-21 20:30S 41°11' E 146°22'0 0.0
2018-Jun-21 12:07S 41°11' E 146°22'0 0.0
2018-Jun-21 11:58S 41°11' E 146°22'0 0.0
2018-Jun-21 11:25S 41°11' E 146°22'0 0.0
2018-Jun-21 10:55S 41°11' E 146°22'0 0.0
2018-Jun-21 10:22S 41°11' E 146°22'0 0.0
2018-Jun-21 09:55S 41°11' E 146°22'0 0.0
2018-Jun-21 09:28S 41°11' E 146°22'0 0.0
2018-Jun-21 08:52S 41°11' E 146°22'0 0.0
2018-Jun-21 08:28S 41°11' E 146°22'0 0.0
2018-Jun-21 07:58S 41°11' E 146°22'0 0.0
2018-Jun-21 07:28S 41°11' E 146°22'0 0.0
2018-Jun-21 06:55S 41°11' E 146°22'0 0.0
2018-Jun-21 01:01S 41°11' E 146°22'0 0.0
2018-Jun-21 00:55S 41°11' E 146°22'0 0.0
2018-Jun-21 00:28S 41°11' E 146°22'0 0.0
2018-Jun-20 23:58S 41°11' E 146°22'0 0.0
2018-Jun-20 23:28S 41°11' E 146°22'0 0.0
2018-Jun-20 22:55S 41°11' E 146°22'0 0.0
2018-Jun-20 22:25S 41°11' E 146°22'0 0.0
2018-Jun-20 21:58S 41°11' E 146°22'0 0.0
2018-Jun-20 21:28S 41°11' E 146°22'0 0.0
2018-Jun-20 20:58S 41°11' E 146°22'0 0.0
2018-Jun-20 20:28S 41°11' E 146°22'0 0.0
2018-Jun-20 19:58S 41°11' E 146°22'0 0.0
2018-Jun-20 19:28S 41°11' E 146°22'0 0.0
2018-Jun-20 18:52S 41°11' E 146°22'0 0.0
2018-Jun-20 18:28S 41°11' E 146°22'0 0.0
2018-Jun-20 17:58S 41°11' E 146°22'0 0.0
2018-Jun-20 17:28S 41°11' E 146°22'0 0.0
2018-Jun-20 16:58S 41°11' E 146°22'0 0.0
2018-Jun-20 16:28S 41°11' E 146°22'0 0.0
2018-Jun-20 15:58S 41°11' E 146°22'0 0.0
2018-Jun-20 15:28S 41°11' E 146°22'0 0.0
2018-Jun-20 14:49S 41°11' E 146°22'0 0.0
2018-Jun-20 14:28S 41°11' E 146°22'0 0.2
2018-Jun-20 14:00S 41°11' E 146°22'2 4.7
2018-Jun-20 13:30S 41°09' E 146°23'3 6.1
2018-Jun-20 13:00S 41°06' E 146°23'3 5.9
2018-Jun-20 12:30S 41°03' E 146°22'3 6.2
2018-Jun-20 12:00S 41°00' E 146°21'4 7.3
2018-Jun-20 11:30S 40°57' E 146°19'4 7.8
2018-Jun-20 11:00S 40°53' E 146°18'4 7.8
2018-Jun-20 10:30S 40°49' E 146°17'3 6.0
2018-Jun-20 10:00S 40°46' E 146°15'2 3.8
2018-Jun-20 09:30S 40°44' E 146°15'2 3.9
2018-Jun-20 09:00S 40°43' E 146°14'2 4.3
2018-Jun-20 08:30S 40°41' E 146°13'1 1.8
2018-Jun-20 08:00S 40°41' E 146°12'1 1.5
2018-Jun-20 07:30S 40°41' E 146°12'1 1.1
2018-Jun-20 07:00S 40°42' E 146°11'1 1.2
2018-Jun-20 06:30S 40°43' E 146°11'1 1.2
2018-Jun-20 06:00S 40°43' E 146°11'1 1.3
2018-Jun-20 05:30S 40°44' E 146°11'1 1.7
2018-Jun-20 05:00S 40°44' E 146°10'1 1.5
2018-Jun-20 04:30S 40°45' E 146°09'1 1.5
2018-Jun-20 04:00S 40°46' E 146°09'1 1.8
2018-Jun-20 03:30S 40°46' E 146°08'1 2.3
2018-Jun-20 03:00S 40°48' E 146°08'0 0.8
2018-Jun-20 02:30S 40°48' E 146°07'0 0.2
2018-Jun-20 02:00S 40°48' E 146°07'1 1.4
2018-Jun-20 01:30S 40°48' E 146°07'1 1.1
2018-Jun-20 01:00S 40°49' E 146°07'0 1.0
2018-Jun-20 00:30S 40°49' E 146°07'1 1.1
2018-Jun-20 00:00S 40°50' E 146°07'0 0.5
2018-Jun-19 23:30S 40°50' E 146°07'2 1.3
2018-Jun-19 22:08S 40°49' E 146°09'0 0.8
2018-Jun-19 22:00S 40°48' E 146°09'1 2.5
2018-Jun-19 21:30S 40°47' E 146°09'3 5.5
2018-Jun-19 21:00S 40°45' E 146°08'5 9.7
2018-Jun-19 20:30S 40°41' E 146°05'510.8
2018-Jun-19 20:00S 40°36' E 146°01'810.7
2018-Jun-19 19:18S 40°29' E 145°56'310.8
2018-Jun-19 19:00S 40°26' E 145°54'  
2018-Jun-16 18:51S 40°24' E 145°54'411.3
2018-Jun-16 18:30S 40°28' E 145°57'611.3
2018-Jun-16 18:00S 40°33' E 146°00'611.4
2018-Jun-16 17:30S 40°38' E 146°04'611.4
2018-Jun-16 17:00S 40°43' E 146°07'611.4
2018-Jun-16 16:30S 40°48' E 146°10'611.3
2018-Jun-16 16:00S 40°53' E 146°14'611.2
2018-Jun-16 15:30S 40°58' E 146°17'611.3
2018-Jun-16 15:00S 41°03' E 146°21'511.0
2018-Jun-16 14:30S 41°08' E 146°23'3 6.0
2018-Jun-16 14:00S 41°11' E 146°22'0 0.2
2018-Jun-16 13:30S 41°11' E 146°22'0 0.0
2018-Jun-16 13:00S 41°11' E 146°22'0 0.0
2018-Jun-16 12:30S 41°11' E 146°22'0 0.0
2018-Jun-16 11:30S 41°11' E 146°22'0 0.0
2018-Jun-16 10:57S 41°11' E 146°22'0 0.0
2018-Jun-16 10:30S 41°11' E 146°22'0 0.0
2018-Jun-16 09:57S 41°11' E 146°22'0 0.0
2018-Jun-16 09:30S 41°11' E 146°22'0 0.0
2018-Jun-16 08:57S 41°11' E 146°22'0 0.0
2018-Jun-16 08:27S 41°11' E 146°22'0 0.0
2018-Jun-16 07:57S 41°11' E 146°22'0 0.0
2018-Jun-16 07:30S 41°11' E 146°22'0 0.0
2018-Jun-16 07:00S 41°11' E 146°22'0 0.0
2018-Jun-16 06:24S 41°11' E 146°22'0 0.0
2018-Jun-16 06:00S 41°11' E 146°22'0 0.0
2018-Jun-16 05:30S 41°11' E 146°22'0 0.0
2018-Jun-16 05:00S 41°11' E 146°22'0 0.0
2018-Jun-16 04:30S 41°11' E 146°22'0 0.0
2018-Jun-16 04:00S 41°11' E 146°22'0 0.0
2018-Jun-16 03:30S 41°11' E 146°22'0 0.0
2018-Jun-16 03:00S 41°11' E 146°22'0 0.0
2018-Jun-16 02:30S 41°11' E 146°22'0 0.2
2018-Jun-16 02:00S 41°11' E 146°22'0 0.2
2018-Jun-16 01:30S 41°11' E 146°22'0 0.0
2018-Jun-16 01:00S 41°11' E 146°22'0 0.0
2018-Jun-16 00:30S 41°11' E 146°22'0 0.0
2018-Jun-16 00:00S 41°11' E 146°22'0 0.0
2018-Jun-15 22:18S 41°11' E 146°22'0 0.2
2018-Jun-15 22:00S 41°11' E 146°22'0 0.1
2018-Jun-15 21:30S 41°11' E 146°22'0 0.0
2018-Jun-15 21:00S 41°11' E 146°22'0 0.0
2018-Jun-15 20:24S 41°11' E 146°22'0 0.0
2018-Jun-15 19:48S 41°11' E 146°22'0 0.0
2018-Jun-15 19:30S 41°11' E 146°22'0 0.0
2018-Jun-15 19:00S 41°11' E 146°22'0 0.0
2018-Jun-15 18:30S 41°11' E 146°22'0 0.0
2018-Jun-15 15:42S 41°11' E 146°22'0 0.0
2018-Jun-15 15:30S 41°11' E 146°22'0 0.0
2018-Jun-15 15:00S 41°11' E 146°22'0 0.0
2018-Jun-15 14:30S 41°11' E 146°22'  

Dump ship's entire track history